createdAt,value
2018-10-02T00:06:21.209Z,7.10
2018-10-02T00:16:24.431Z,7.23
2018-10-02T00:26:27.661Z,8.53
2018-10-02T00:36:30.932Z,6.03
2018-10-02T00:46:34.169Z,8.83
2018-10-02T00:56:37.422Z,4.97
2018-10-02T01:06:40.730Z,4.73
2018-10-02T01:16:44.224Z,6.90
2018-10-02T01:26:47.465Z,5.67
2018-10-02T01:36:50.684Z,9.03
2018-10-02T01:46:53.957Z,10.90
2018-10-02T01:56:57.205Z,8.63
2018-10-02T02:07:00.452Z,13.03
2018-10-02T02:17:03.676Z,11.93
2018-10-02T02:27:06.908Z,7.90
2018-10-02T02:37:10.136Z,9.07
2018-10-02T02:47:18.520Z,12.80
2018-10-02T02:57:21.771Z,10.20
2018-10-02T03:07:25.016Z,8.67
2018-10-02T03:17:28.216Z,8.00
2018-10-02T03:27:31.453Z,11.27
2018-10-02T03:37:34.709Z,11.40
2018-10-02T03:47:37.936Z,11.10
2018-10-02T03:57:41.191Z,10.33
2018-10-02T04:07:44.425Z,11.07
2018-10-02T04:17:48.180Z,12.00
2018-10-02T04:27:51.431Z,17.30
2018-10-02T04:37:54.628Z,12.70
2018-10-02T04:47:57.916Z,15.57
2018-10-02T04:58:01.181Z,12.40
2018-10-02T05:08:04.437Z,9.37
2018-10-02T05:18:07.749Z,16.77
2018-10-02T05:28:11.256Z,14.70
2018-10-02T05:38:14.711Z,14.73
2018-10-02T05:48:17.953Z,12.80
2018-10-02T05:58:21.314Z,10.67
2018-10-02T06:08:25.147Z,14.67
2018-10-02T06:18:28.384Z,17.80
2018-10-02T06:28:31.621Z,15.43
2018-10-02T06:38:35.157Z,11.90
2018-10-02T06:48:38.196Z,13.57
2018-10-02T06:58:41.408Z,12.77
2018-10-02T07:08:44.779Z,11.37
2018-10-02T07:18:48.237Z,15.90
2018-10-02T07:28:51.609Z,12.50
2018-10-02T07:38:54.856Z,10.47
2018-10-02T07:48:58.156Z,8.53
2018-10-02T07:59:01.395Z,12.00
2018-10-02T08:09:08.024Z,14.20
2018-10-02T08:19:11.292Z,10.63
2018-10-02T08:29:14.533Z,9.33
2018-10-02T08:39:17.716Z,15.70
2018-10-02T08:49:20.953Z,12.07
2018-10-02T08:59:25.471Z,9.93
2018-10-02T09:09:28.921Z,11.93
2018-10-02T09:19:32.472Z,5.33
2018-10-02T09:29:39.938Z,9.17
2018-10-02T09:39:48.621Z,10.93
2018-10-02T09:49:51.880Z,5.47
2018-10-02T09:59:55.089Z,6.47
2018-10-02T10:09:58.352Z,7.17
2018-10-02T10:20:01.552Z,7.83
2018-10-02T10:30:04.841Z,8.20
2018-10-02T10:40:08.097Z,8.20
2018-10-02T10:50:11.389Z,6.53
2018-10-02T11:00:14.628Z,4.87
2018-10-02T11:10:18.780Z,6.03
2018-10-02T11:20:24.235Z,13.10
2018-10-02T11:30:27.743Z,8.07
2018-10-02T11:40:31.068Z,7.30
2018-10-02T11:50:35.036Z,7.97
2018-10-02T12:00:38.319Z,7.07
2018-10-02T12:10:41.505Z,8.30
2018-10-02T12:20:44.755Z,7.63
2018-10-02T12:30:47.963Z,9.43
2018-10-02T12:40:51.173Z,19.97
2018-10-02T12:50:54.391Z,8.30
2018-10-02T13:00:57.624Z,6.60
2018-10-02T13:11:00.876Z,10.53
2018-10-02T13:21:04.225Z,7.40
2018-10-02T13:31:07.449Z,7.90
2018-10-02T13:41:10.674Z,11.23
2018-10-02T13:51:14.760Z,6.80
2018-10-02T14:01:18.027Z,6.83
2018-10-02T14:11:21.316Z,6.70
2018-10-02T14:21:24.601Z,4.73
2018-10-02T14:31:28.048Z,5.87
2018-10-02T14:41:31.284Z,4.23
2018-10-02T14:51:34.662Z,3.27
2018-10-02T15:01:37.940Z,5.10
2018-10-02T15:11:41.330Z,7.20
2018-10-02T15:21:44.597Z,5.87
2018-10-02T15:31:48.029Z,5.37
2018-10-02T15:41:51.270Z,4.17
2018-10-02T15:51:54.520Z,4.33
2018-10-02T16:01:58.888Z,6.77
2018-10-02T16:12:02.204Z,8.10
2018-10-02T16:22:05.683Z,5.27
2018-10-02T16:32:09.046Z,6.40
2018-10-02T16:42:12.289Z,9.47
2018-10-02T16:52:15.516Z,4.70
2018-10-02T17:02:18.776Z,2.93
2018-10-02T17:12:22.039Z,3.00
2018-10-02T17:22:25.280Z,4.23
2018-10-02T17:32:28.552Z,3.67
2018-10-02T17:42:32.397Z,4.07
2018-10-02T17:52:35.675Z,3.30
2018-10-02T18:02:38.971Z,5.97
2018-10-02T18:12:42.239Z,4.37
2018-10-02T18:22:45.544Z,3.87
2018-10-02T18:32:48.882Z,8.20
2018-10-02T18:42:52.165Z,4.20
2018-10-02T18:52:55.412Z,5.10
2018-10-02T19:02:58.662Z,7.23
2018-10-02T19:13:01.945Z,4.40
2018-10-02T19:23:05.223Z,7.20
2018-10-02T19:33:08.501Z,5.77
2018-10-02T19:43:11.797Z,5.60
2018-10-02T19:53:15.462Z,5.03
2018-10-02T20:03:18.770Z,7.10
2018-10-02T20:13:22.126Z,8.27
2018-10-02T20:23:25.501Z,7.90
2018-10-02T20:33:28.740Z,6.83
2018-10-02T20:43:31.997Z,5.73
2018-10-02T20:53:35.304Z,7.30
2018-10-02T21:03:38.558Z,5.10
2018-10-02T21:13:42.630Z,5.60
2018-10-02T21:23:45.860Z,6.27
2018-10-02T21:33:49.096Z,6.67
2018-10-02T21:43:52.379Z,9.70
2018-10-02T21:53:55.616Z,7.13
2018-10-02T22:03:58.890Z,7.80
2018-10-02T22:14:02.161Z,8.37
2018-10-02T22:24:05.446Z,11.03
2018-10-02T22:34:08.668Z,8.90
2018-10-02T22:44:11.978Z,9.10
2018-10-02T22:54:15.319Z,8.50
2018-10-02T23:04:18.634Z,8.37
2018-10-02T23:14:21.957Z,7.80
2018-10-02T23:24:25.272Z,6.03
2018-10-02T23:34:28.524Z,5.13
2018-10-02T23:44:31.763Z,5.83
2018-10-02T23:54:35.002Z,6.47
